Time;durP1;ratioP1;P1;durP2;ratioP2;P2;SDS_P1;SDS_P2;PMS_P1;PMS_P2;Temp;Humidity;BMP_temperature;BMP_pressure;BME280_temperature;BME280_humidity;BME280_pressure;Samples;Min_cycle;Max_cycle;Signal;HPM_P1;HPM_P2
2021/01/26 00:01:14;;;;;;;14.02;1.98;;;;;;;;;;4967412;28;20113;-87
2021/01/26 00:03:43;;;;;;;14.38;2.45;;;;;;;;;;4965415;28;20031;-86
2021/01/26 00:06:12;;;;;;;14.15;2.22;;;;;;;;;;4970872;28;20034;-86
2021/01/26 00:08:41;;;;;;;14.40;2.00;;;;;;;;;;4932105;28;20046;-86
2021/01/26 00:11:09;;;;;;;12.63;2.30;;;;;;;;;;4920009;28;20045;-86
2021/01/26 00:13:40;;;;;;;12.80;2.13;;;;;;;;;;4977651;28;20042;-86
2021/01/26 00:16:08;;;;;;;11.98;2.13;;;;;;;;;;4903860;28;20034;-86
2021/01/26 00:18:37;;;;;;;12.57;2.30;;;;;;;;;;4967188;28;20061;-86
2021/01/26 00:21:09;;;;;;;11.30;2.15;;;;;;;;;;4938918;28;20041;-87
2021/01/26 00:23:47;;;;;;;10.85;2.15;;;;;;;;;;4956252;28;20050;-86
2021/01/26 00:26:18;;;;;;;11.32;1.95;;;;;;;;;;4962117;28;20062;-86
2021/01/26 00:28:46;;;;;;;14.13;2.15;;;;;;;;;;4948324;28;20105;-87
2021/01/26 00:31:14;;;;;;;13.70;2.28;;;;;;;;;;4980971;28;20433;-87
2021/01/26 00:33:42;;;;;;;12.60;2.15;;;;;;;;;;4929506;28;20066;-87
2021/01/26 00:36:08;;;;;;;11.57;1.88;;;;;;;;;;4960555;28;20045;-87
2021/01/26 00:38:35;;;;;;;11.82;2.25;;;;;;;;;;4993629;28;20171;-88
2021/01/26 00:41:04;;;;;;;11.90;2.13;;;;;;;;;;5012269;28;20056;-87
2021/01/26 00:43:33;;;;;;;13.43;2.38;;;;;;;;;;5006517;28;20037;-87
2021/01/26 00:46:00;;;;;;;10.45;2.00;;;;;;;;;;5011835;28;20076;-87
2021/01/26 00:48:27;;;;;;;11.35;2.10;;;;;;;;;;5003001;28;20034;-88
2021/01/26 00:50:55;;;;;;;11.18;2.15;;;;;;;;;;4995609;28;20390;-87
2021/01/26 00:53:22;;;;;;;13.05;2.30;;;;;;;;;;5013769;28;20083;-87
2021/01/26 00:55:51;;;;;;;12.77;2.45;;;;;;;;;;5003746;28;20703;-86
2021/01/26 00:58:19;;;;;;;12.18;2.08;;;;;;;;;;5007336;28;20037;-86
2021/01/26 01:00:48;;;;;;;13.55;2.80;;;;;;;;;;4991736;28;20508;-88
2021/01/26 01:03:25;;;;;;;14.25;2.33;;;;;;;;;;4987907;28;20088;-87
2021/01/26 01:05:52;;;;;;;12.45;2.28;;;;;;;;;;4993671;28;20123;-87
2021/01/26 01:08:18;;;;;;;10.13;2.25;;;;;;;;;;4993561;28;20041;-87
2021/01/26 01:10:44;;;;;;;12.20;2.20;;;;;;;;;;5004338;28;20125;-86
2021/01/26 01:13:13;;;;;;;11.38;2.05;;;;;;;;;;5029346;28;20040;-88
2021/01/26 01:15:41;;;;;;;13.07;1.70;;;;;;;;;;5027550;28;20036;-86
2021/01/26 01:18:11;;;;;;;10.85;1.73;;;;;;;;;;4997623;28;20041;-87
2021/01/26 01:20:40;;;;;;;12.00;2.20;;;;;;;;;;4971651;28;20038;-87
2021/01/26 01:23:10;;;;;;;15.30;2.40;;;;;;;;;;4966924;28;20796;-87
2021/01/26 01:25:38;;;;;;;13.75;2.38;;;;;;;;;;4971436;28;20063;-87
2021/01/26 01:28:10;;;;;;;14.15;2.22;;;;;;;;;;4923628;28;20049;-87
2021/01/26 01:30:36;;;;;;;15.07;2.25;;;;;;;;;;4944295;28;20038;-87
2021/01/26 01:33:06;;;;;;;13.68;2.50;;;;;;;;;;4981887;28;20080;-87
2021/01/26 01:35:34;;;;;;;16.00;2.67;;;;;;;;;;4982615;28;20103;-86
2021/01/26 01:38:01;;;;;;;13.75;2.20;;;;;;;;;;4951333;28;20049;-86
2021/01/26 01:40:34;;;;;;;12.15;2.33;;;;;;;;;;4956210;28;20811;-86
2021/01/26 01:43:02;;;;;;;12.10;2.05;;;;;;;;;;4983367;28;20033;-86
2021/01/26 01:45:30;;;;;;;10.25;2.00;;;;;;;;;;4936484;28;20914;-87
2021/01/26 01:48:02;;;;;;;15.02;2.50;;;;;;;;;;4967680;28;20187;-87
2021/01/26 01:50:48;;;;;;;14.43;2.60;;;;;;;;;;4968053;28;20734;-86
2021/01/26 01:53:20;;;;;;;13.93;2.08;;;;;;;;;;4962077;28;20133;-87
2021/01/26 01:55:51;;;;;;;13.70;2.60;;;;;;;;;;4935134;28;20033;-87
2021/01/26 01:58:21;;;;;;;11.48;2.40;;;;;;;;;;4952456;28;20030;-87
2021/01/26 02:00:53;;;;;;;15.02;2.25;;;;;;;;;;4977695;28;20608;-86
2021/01/26 02:03:22;;;;;;;14.05;2.28;;;;;;;;;;4966168;28;20042;-84
2021/01/26 02:05:53;;;;;;;13.57;2.22;;;;;;;;;;4928242;28;20040;-85
2021/01/26 02:08:23;;;;;;;12.90;2.40;;;;;;;;;;4961104;28;20041;-85
2021/01/26 02:10:49;;;;;;;15.13;2.45;;;;;;;;;;4975686;28;20105;-84
2021/01/26 02:13:16;;;;;;;17.55;2.47;;;;;;;;;;5020846;28;20048;-85
2021/01/26 02:15:50;;;;;;;16.80;2.22;;;;;;;;;;5014450;28;20051;-84
2021/01/26 02:18:26;;;;;;;9.77;2.10;;;;;;;;;;5006319;28;20143;-85
2021/01/26 02:21:07;;;;;;;14.23;2.40;;;;;;;;;;4993850;28;20083;-85
2021/01/26 02:23:54;;;;;;;12.00;2.10;;;;;;;;;;5015169;28;20039;-84
2021/01/26 02:26:53;;;;;;;12.27;2.20;;;;;;;;;;5020814;28;20437;-84
2021/01/26 02:29:41;;;;;;;13.25;2.35;;;;;;;;;;5028014;28;20414;-85
2021/01/26 02:32:26;;;;;;;11.02;2.38;;;;;;;;;;5033244;28;20552;-84
2021/01/26 02:35:13;;;;;;;13.02;2.25;;;;;;;;;;5004604;28;20113;-85
2021/01/26 02:37:58;;;;;;;12.27;2.17;;;;;;;;;;5004872;28;20036;-85
2021/01/26 02:40:35;;;;;;;14.55;2.45;;;;;;;;;;5035417;28;20058;-85
2021/01/26 02:43:05;;;;;;;10.80;2.38;;;;;;;;;;4982259;28;20032;-85
2021/01/26 02:45:37;;;;;;;11.80;1.75;;;;;;;;;;5008984;28;20069;-85
2021/01/26 02:48:10;;;;;;;13.63;2.33;;;;;;;;;;5014538;28;20032;-84
2021/01/26 02:50:49;;;;;;;14.38;2.38;;;;;;;;;;5015481;28;20041;-84
2021/01/26 02:53:44;;;;;;;15.73;2.67;;;;;;;;;;5016078;28;20140;-84
2021/01/26 02:56:13;;;;;;;13.52;2.00;;;;;;;;;;4984865;28;20068;-85
2021/01/26 02:58:44;;;;;;;11.57;2.35;;;;;;;;;;4990544;28;20469;-85
2021/01/26 03:01:12;;;;;;;13.85;2.67;;;;;;;;;;4996910;28;20069;-85
2021/01/26 03:03:44;;;;;;;13.20;2.10;;;;;;;;;;4966401;28;20509;-85
2021/01/26 03:06:15;;;;;;;12.77;3.03;;;;;;;;;;4953448;28;20034;-85
2021/01/26 03:08:55;;;;;;;17.30;2.85;;;;;;;;;;4980889;28;20502;-85
2021/01/26 03:11:44;;;;;;;18.98;2.72;;;;;;;;;;4974349;28;20040;-85
2021/01/26 03:14:12;;;;;;;13.10;2.33;;;;;;;;;;4973471;28;20054;-84
2021/01/26 03:16:40;;;;;;;10.80;2.10;;;;;;;;;;4974589;28;20033;-85
2021/01/26 03:19:17;;;;;;;11.43;2.20;;;;;;;;;;4991666;28;20060;-84
2021/01/26 03:21:47;;;;;;;13.02;2.60;;;;;;;;;;4963870;28;20129;-84
2021/01/26 03:24:25;;;;;;;16.48;2.90;;;;;;;;;;4932780;28;20197;-84
2021/01/26 03:26:52;;;;;;;16.05;2.85;;;;;;;;;;4976495;28;20041;-84
2021/01/26 03:29:23;;;;;;;15.85;2.47;;;;;;;;;;4978620;28;20042;-84
2021/01/26 03:31:53;;;;;;;16.38;2.45;;;;;;;;;;4972839;28;20046;-84
2021/01/26 03:34:20;;;;;;;15.10;2.47;;;;;;;;;;5019474;28;20361;-85
2021/01/26 03:36:48;;;;;;;16.05;2.38;;;;;;;;;;4993745;28;20053;-84
2021/01/26 03:39:15;;;;;;;12.80;1.90;;;;;;;;;;4997056;28;20646;-85
2021/01/26 03:41:44;;;;;;;14.50;2.35;;;;;;;;;;5036410;28;20040;-84
2021/01/26 03:44:11;;;;;;;13.32;2.30;;;;;;;;;;5040222;28;20067;-84
2021/01/26 03:46:57;;;;;;;14.07;2.33;;;;;;;;;;5019863;28;20459;-85
2021/01/26 03:49:44;;;;;;;13.93;2.35;;;;;;;;;;5031290;28;20075;-84
2021/01/26 03:52:22;;;;;;;14.05;2.38;;;;;;;;;;4945331;28;20076;-84
2021/01/26 03:55:12;;;;;;;12.65;2.60;;;;;;;;;;4934556;28;20081;-85
2021/01/26 03:57:56;;;;;;;15.10;2.55;;;;;;;;;;4960343;28;20046;-85
2021/01/26 04:00:26;;;;;;;14.70;2.35;;;;;;;;;;4988716;28;20033;-84
2021/01/26 04:02:58;;;;;;;14.43;2.42;;;;;;;;;;4985091;28;20117;-84
2021/01/26 04:05:30;;;;;;;11.82;2.13;;;;;;;;;;4972815;28;20055;-84
2021/01/26 04:08:01;;;;;;;14.10;1.92;;;;;;;;;;4961442;28;20124;-84
2021/01/26 04:10:29;;;;;;;10.27;2.20;;;;;;;;;;4984166;28;20128;-85
2021/01/26 04:12:58;;;;;;;13.18;2.20;;;;;;;;;;4988367;28;20099;-85
2021/01/26 04:15:38;;;;;;;11.65;2.25;;;;;;;;;;4989187;28;20041;-84
2021/01/26 04:18:07;;;;;;;14.65;2.35;;;;;;;;;;4993688;28;20665;-85
2021/01/26 04:20:36;;;;;;;13.70;2.38;;;;;;;;;;4969926;28;21395;-84
2021/01/26 04:23:04;;;;;;;16.50;2.35;;;;;;;;;;5005548;28;20047;-84
2021/01/26 04:25:33;;;;;;;12.63;2.35;;;;;;;;;;5022654;28;20043;-85
2021/01/26 04:28:02;;;;;;;11.98;2.60;;;;;;;;;;4983921;28;20073;-84
2021/01/26 04:30:31;;;;;;;12.27;2.13;;;;;;;;;;5014698;28;20041;-84
2021/01/26 04:33:00;;;;;;;14.05;2.35;;;;;;;;;;5015742;28;20045;-84
2021/01/26 04:35:28;;;;;;;12.80;2.47;;;;;;;;;;5010590;28;20044;-84
2021/01/26 04:37:56;;;;;;;14.35;2.50;;;;;;;;;;5023026;28;20448;-85
2021/01/26 04:40:24;;;;;;;14.23;2.92;;;;;;;;;;5043127;28;20043;-84
2021/01/26 04:42:53;;;;;;;12.48;2.10;;;;;;;;;;5018536;28;20049;-84
2021/01/26 04:45:49;;;;;;;14.05;2.13;;;;;;;;;;5009597;28;20721;-84
2021/01/26 04:48:23;;;;;;;14.77;2.28;;;;;;;;;;5036905;28;20099;-85
2021/01/26 04:50:59;;;;;;;12.43;2.15;;;;;;;;;;5042319;28;20068;-85
2021/01/26 04:53:27;;;;;;;13.70;2.20;;;;;;;;;;5020068;28;20836;-85
2021/01/26 04:55:54;;;;;;;11.90;2.20;;;;;;;;;;4997930;28;20123;-84
2021/01/26 04:58:20;;;;;;;12.52;2.42;;;;;;;;;;5022460;28;20524;-85
2021/01/26 05:01:07;;;;;;;15.00;2.55;;;;;;;;;;5026981;28;20748;-84
2021/01/26 05:03:37;;;;;;;12.93;2.08;;;;;;;;;;5014170;28;20041;-84
2021/01/26 05:06:08;;;;;;;16.92;3.00;;;;;;;;;;5022556;28;20097;-85
2021/01/26 05:08:37;;;;;;;14.50;2.33;;;;;;;;;;5019833;28;20037;-84
2021/01/26 05:11:11;;;;;;;13.88;2.40;;;;;;;;;;5022707;28;20041;-85
2021/01/26 05:13:41;;;;;;;16.25;2.90;;;;;;;;;;5027426;28;20044;-85
2021/01/26 05:16:22;;;;;;;15.20;2.42;;;;;;;;;;5010859;28;20041;-84
2021/01/26 05:18:52;;;;;;;14.05;2.45;;;;;;;;;;5007878;28;20039;-84
2021/01/26 05:21:39;;;;;;;13.00;2.60;;;;;;;;;;4998401;28;20039;-84
2021/01/26 05:24:14;;;;;;;13.27;2.33;;;;;;;;;;5025621;28;20448;-86
2021/01/26 05:26:42;;;;;;;15.80;2.38;;;;;;;;;;5039579;28;20043;-87
2021/01/26 05:29:12;;;;;;;14.38;2.72;;;;;;;;;;5025419;28;20128;-86
2021/01/26 05:31:39;;;;;;;17.48;2.58;;;;;;;;;;5026769;28;20045;-87
2021/01/26 05:34:12;;;;;;;17.35;2.70;;;;;;;;;;5034903;28;20071;-87
2021/01/26 05:36:46;;;;;;;14.07;3.10;;;;;;;;;;5033454;28;20093;-88
2021/01/26 05:39:15;;;;;;;12.68;2.70;;;;;;;;;;5016938;28;20049;-88
2021/01/26 05:41:43;;;;;;;18.45;3.10;;;;;;;;;;5028929;28;20044;-87
2021/01/26 05:44:11;;;;;;;15.50;3.00;;;;;;;;;;5025925;28;20044;-87
2021/01/26 05:46:46;;;;;;;15.88;3.30;;;;;;;;;;5031317;28;20036;-89
2021/01/26 05:49:15;;;;;;;14.52;2.70;;;;;;;;;;5012102;28;20037;-87
2021/01/26 05:51:45;;;;;;;14.70;2.85;;;;;;;;;;5026020;28;20332;-87
2021/01/26 05:54:21;;;;;;;16.40;3.00;;;;;;;;;;4999967;28;20049;-88
2021/01/26 05:56:51;;;;;;;13.43;2.33;;;;;;;;;;5011922;28;20047;-88
2021/01/26 05:59:19;;;;;;;13.60;2.90;;;;;;;;;;4985451;28;20136;-87
2021/01/26 06:01:48;;;;;;;18.30;3.05;;;;;;;;;;5018655;28;20048;-86
2021/01/26 06:04:17;;;;;;;20.02;3.58;;;;;;;;;;5029785;28;20044;-87
2021/01/26 06:06:56;;;;;;;16.63;2.72;;;;;;;;;;5014950;28;20782;-88
2021/01/26 06:09:38;;;;;;;13.45;2.75;;;;;;;;;;5028330;28;20036;-87
2021/01/26 06:12:18;;;;;;;14.52;3.13;;;;;;;;;;5025264;28;20359;-87
2021/01/26 06:14:59;;;;;;;13.60;3.00;;;;;;;;;;5023750;28;20033;-89
2021/01/26 06:17:31;;;;;;;17.65;2.78;;;;;;;;;;5012234;28;20489;-89
2021/01/26 06:20:17;;;;;;;13.90;3.00;;;;;;;;;;5008822;28;20047;-89
2021/01/26 06:22:45;;;;;;;15.47;2.90;;;;;;;;;;5039834;28;20711;-88
2021/01/26 06:25:18;;;;;;;15.20;2.63;;;;;;;;;;5045746;28;20108;-89
2021/01/26 06:28:00;;;;;;;16.17;3.35;;;;;;;;;;4997264;28;20330;-89
2021/01/26 06:30:32;;;;;;;13.05;2.80;;;;;;;;;;5014938;28;20146;-88
2021/01/26 06:33:02;;;;;;;13.75;3.10;;;;;;;;;;5036454;28;20041;-89
2021/01/26 06:35:49;;;;;;;17.80;2.75;;;;;;;;;;5002623;28;20069;-89
2021/01/26 06:38:26;;;;;;;10.15;2.22;;;;;;;;;;5023137;28;20043;-88
2021/01/26 06:41:11;;;;;;;13.93;2.88;;;;;;;;;;5027059;28;20078;-89
2021/01/26 06:43:57;;;;;;;13.30;2.65;;;;;;;;;;5049913;28;20031;-89
2021/01/26 06:46:40;;;;;;;14.82;2.72;;;;;;;;;;5040232;28;20047;-89
2021/01/26 06:49:21;;;;;;;14.35;3.08;;;;;;;;;;5040256;28;20082;-87
2021/01/26 06:52:03;;;;;;;13.40;3.20;;;;;;;;;;5027544;28;20611;-88
2021/01/26 06:54:49;;;;;;;13.85;2.75;;;;;;;;;;5038805;28;20451;-89
2021/01/26 06:57:37;;;;;;;16.73;3.33;;;;;;;;;;5047174;28;20039;-90
2021/01/26 07:00:23;;;;;;;13.68;3.28;;;;;;;;;;5019358;28;20127;-88
2021/01/26 07:03:08;;;;;;;13.43;2.80;;;;;;;;;;5027157;28;20155;-91
2021/01/26 07:05:43;;;;;;;17.63;3.28;;;;;;;;;;5023880;28;20028;-88
2021/01/26 07:08:36;;;;;;;20.15;4.05;;;;;;;;;;5027573;28;20079;-89
2021/01/26 07:11:11;;;;;;;15.48;3.63;;;;;;;;;;4975986;28;20040;-88
2021/01/26 07:14:03;;;;;;;18.13;3.60;;;;;;;;;;5023084;28;20037;-88
2021/01/26 07:16:57;;;;;;;13.73;2.70;;;;;;;;;;4913507;28;20597;-89
2021/01/26 07:19:37;;;;;;;14.65;3.10;;;;;;;;;;4879913;29;20047;-88
2021/01/26 07:22:20;;;;;;;18.13;3.17;;;;;;;;;;4893027;29;20079;-89
2021/01/26 07:25:07;;;;;;;17.38;3.35;;;;;;;;;;4897062;29;20028;-89
2021/01/26 07:27:52;;;;;;;14.52;2.80;;;;;;;;;;4871770;29;20048;-90
2021/01/26 07:30:25;;;;;;;15.63;3.42;;;;;;;;;;4900441;29;20039;-88
2021/01/26 07:32:53;;;;;;;20.13;4.10;;;;;;;;;;4887645;29;20244;-89
2021/01/26 07:35:39;;;;;;;19.88;4.07;;;;;;;;;;4901776;29;20058;-87
2021/01/26 07:38:20;;;;;;;17.58;3.65;;;;;;;;;;4907666;28;20063;-89
2021/01/26 07:40:48;;;;;;;21.20;3.95;;;;;;;;;;4878666;29;20040;-89
2021/01/26 07:43:49;;;;;;;23.55;3.85;;;;;;;;;;4906194;29;20054;-88
2021/01/26 07:46:51;;;;;;;19.70;4.30;;;;;;;;;;4791150;29;20047;-89
2021/01/26 07:49:32;;;;;;;20.63;4.28;;;;;;;;;;4799526;29;20053;-87
2021/01/26 07:52:04;;;;;;;15.43;3.55;;;;;;;;;;4809911;29;20042;-87
2021/01/26 07:54:50;;;;;;;16.58;3.67;;;;;;;;;;4829091;29;20449;-87
2021/01/26 07:57:20;;;;;;;16.77;3.33;;;;;;;;;;4905433;28;20130;-88
2021/01/26 07:59:53;;;;;;;14.40;3.22;;;;;;;;;;4912128;28;20712;-88
2021/01/26 08:02:25;;;;;;;15.18;3.47;;;;;;;;;;4925241;28;20047;-88
2021/01/26 08:04:53;;;;;;;14.20;4.00;;;;;;;;;;4939607;28;20304;-87
2021/01/26 08:07:25;;;;;;;20.95;4.13;;;;;;;;;;4945200;28;20042;-89
2021/01/26 08:09:52;;;;;;;15.65;3.67;;;;;;;;;;4926618;28;20048;-88
2021/01/26 08:12:43;;;;;;;17.27;3.42;;;;;;;;;;4945333;28;20246;-87
2021/01/26 08:15:15;;;;;;;18.15;3.55;;;;;;;;;;4913559;28;20047;-88
2021/01/26 08:17:44;;;;;;;14.30;3.63;;;;;;;;;;4921115;28;20053;-90
2021/01/26 08:20:33;;;;;;;17.83;3.88;;;;;;;;;;4902980;28;20089;-89
2021/01/26 08:23:04;;;;;;;16.75;3.58;;;;;;;;;;4950049;28;20039;-89
2021/01/26 08:25:44;;;;;;;14.80;3.80;;;;;;;;;;4990310;28;20094;-89
2021/01/26 08:28:30;;;;;;;18.08;4.28;;;;;;;;;;5032317;28;20048;-88
2021/01/26 08:30:59;;;;;;;16.75;5.50;;;;;;;;;;4981844;28;20068;-89
2021/01/26 08:33:30;;;;;;;19.05;5.13;;;;;;;;;;4996744;28;20037;-90
2021/01/26 08:36:10;;;;;;;19.25;5.65;;;;;;;;;;5025560;28;20093;-89
2021/01/26 08:38:48;;;;;;;16.60;5.80;;;;;;;;;;5008677;28;20124;-87
2021/01/26 08:41:39;;;;;;;19.10;6.35;;;;;;;;;;5018603;28;20050;-89
2021/01/26 08:44:33;;;;;;;19.58;7.30;;;;;;;;;;5037195;28;20036;-86
2021/01/26 08:47:04;;;;;;;20.08;5.90;;;;;;;;;;5012658;28;20766;-88
2021/01/26 08:49:36;;;;;;;22.17;6.90;;;;;;;;;;5018267;28;20554;-87
2021/01/26 08:52:22;;;;;;;27.75;8.55;;;;;;;;;;5017292;28;20138;-88
2021/01/26 08:54:53;;;;;;;32.28;16.10;;;;;;;;;;5016802;28;20110;-87
2021/01/26 08:57:22;;;;;;;26.50;10.18;;;;;;;;;;4978629;28;20037;-89
2021/01/26 08:59:49;;;;;;;19.27;5.72;;;;;;;;;;4993417;28;20040;-87
2021/01/26 09:02:35;;;;;;;22.30;8.68;;;;;;;;;;5023674;28;20047;-86
2021/01/26 09:05:03;;;;;;;21.15;7.00;;;;;;;;;;5013711;28;20058;-87
2021/01/26 09:07:49;;;;;;;21.05;6.72;;;;;;;;;;5032102;28;20620;-89
2021/01/26 09:10:24;;;;;;;18.90;6.15;;;;;;;;;;4995311;28;20043;-87
2021/01/26 09:12:51;;;;;;;21.20;7.07;;;;;;;;;;4993519;28;20055;-87
2021/01/26 09:15:18;;;;;;;17.67;6.00;;;;;;;;;;5010289;28;20981;-88
2021/01/26 09:17:47;;;;;;;17.88;5.13;;;;;;;;;;5025085;28;20025;-87
2021/01/26 09:20:22;;;;;;;17.48;4.80;;;;;;;;;;5006488;28;20120;-89
2021/01/26 09:22:51;;;;;;;15.02;4.57;;;;;;;;;;5014311;28;20438;-89
2021/01/26 09:25:26;;;;;;;15.10;4.85;;;;;;;;;;5010957;28;20166;-90
2021/01/26 09:28:01;;;;;;;14.60;4.50;;;;;;;;;;4996485;28;20473;-86
2021/01/26 09:30:28;;;;;;;16.02;4.80;;;;;;;;;;5025855;28;21969;-88
2021/01/26 09:33:03;;;;;;;15.90;4.22;;;;;;;;;;5018679;28;20852;-88
2021/01/26 09:35:35;;;;;;;16.27;3.85;;;;;;;;;;5005646;28;20049;-85
2021/01/26 09:38:17;;;;;;;15.50;3.65;;;;;;;;;;5024687;28;20191;-87
2021/01/26 09:40:55;;;;;;;18.40;3.90;;;;;;;;;;5038916;28;20032;-87
2021/01/26 09:43:23;;;;;;;18.90;3.33;;;;;;;;;;5043751;28;20032;-91
2021/01/26 09:45:53;;;;;;;16.80;4.20;;;;;;;;;;5000102;28;20044;-85
2021/01/26 09:48:36;;;;;;;13.75;3.53;;;;;;;;;;4995960;28;20111;-86
2021/01/26 09:51:23;;;;;;;20.42;3.92;;;;;;;;;;4991313;28;20041;-88
2021/01/26 09:54:01;;;;;;;14.55;3.47;;;;;;;;;;4943200;28;20100;-86
2021/01/26 09:56:31;;;;;;;16.15;3.85;;;;;;;;;;4906925;28;20046;-89
2021/01/26 09:58:58;;;;;;;16.55;4.10;;;;;;;;;;4921226;28;20058;-87
2021/01/26 10:01:26;;;;;;;19.98;4.93;;;;;;;;;;4974933;28;20036;-86
2021/01/26 10:04:03;;;;;;;14.38;4.93;;;;;;;;;;4981752;28;20049;-88
2021/01/26 10:06:42;;;;;;;14.88;4.50;;;;;;;;;;4918918;28;20054;-89
2021/01/26 10:09:22;;;;;;;14.88;4.72;;;;;;;;;;4928827;28;20108;-90
2021/01/26 10:11:53;;;;;;;17.20;5.32;;;;;;;;;;4935256;28;20042;-88
2021/01/26 10:14:28;;;;;;;17.70;5.00;;;;;;;;;;4940042;28;20061;-87
2021/01/26 10:17:05;;;;;;;14.18;4.68;;;;;;;;;;4944134;28;20034;-88
2021/01/26 10:19:43;;;;;;;16.30;3.95;;;;;;;;;;4984696;28;20061;-88
2021/01/26 10:22:13;;;;;;;17.90;3.53;;;;;;;;;;4969894;28;20050;-88
2021/01/26 10:24:40;;;;;;;16.13;3.75;;;;;;;;;;4955554;28;20041;-88
2021/01/26 10:27:10;;;;;;;14.10;3.20;;;;;;;;;;4970098;28;20037;-87
2021/01/26 10:29:39;;;;;;;14.88;3.05;;;;;;;;;;4997657;28;20090;-89
2021/01/26 10:32:33;;;;;;;11.60;3.10;;;;;;;;;;4971649;28;20041;-87
2021/01/26 10:35:24;;;;;;;14.70;2.70;;;;;;;;;;4976052;28;20615;-89
2021/01/26 10:37:51;;;;;;;19.05;3.40;;;;;;;;;;4964264;28;20022;-86
2021/01/26 10:40:44;;;;;;;;;;;;;;;;;;;;;
2021/01/26 10:43:26;;;;;;;16.27;4.30;;;;;;;;;;4935668;28;20492;-88
2021/01/26 10:46:24;;;;;;;14.00;3.60;;;;;;;;;;4948511;28;20041;-87
2021/01/26 10:48:53;;;;;;;14.45;4.05;;;;;;;;;;4949162;28;20042;-85
2021/01/26 10:51:29;;;;;;;16.23;3.50;;;;;;;;;;4990111;28;20060;-86
2021/01/26 10:53:55;;;;;;;15.95;3.10;;;;;;;;;;4967496;28;20188;-85
2021/01/26 10:56:25;;;;;;;14.55;2.97;;;;;;;;;;4981522;28;20037;-85
2021/01/26 10:58:56;;;;;;;17.45;5.68;;;;;;;;;;4980422;28;20063;-86
2021/01/26 11:01:24;;;;;;;15.05;3.33;;;;;;;;;;4984999;28;20048;-86
2021/01/26 11:04:00;;;;;;;18.17;4.53;;;;;;;;;;4991449;28;20049;-86
2021/01/26 11:06:51;;;;;;;17.17;4.30;;;;;;;;;;4984116;28;20057;-85
2021/01/26 11:29:23;;;;;;;15.82;5.20;;;;;;;;;;5001058;28;20068;-83
2021/01/26 11:31:50;;;;;;;15.38;5.10;;;;;;;;;;5004630;28;20044;-84
2021/01/26 11:34:17;;;;;;;24.15;5.03;;;;;;;;;;5015871;28;20033;-86
2021/01/26 11:36:43;;;;;;;;;;;;;;;;;;4985470;28;20505;-85
2021/01/26 11:39:10;;;;;;;16.83;4.60;;;;;;;;;;5002251;28;20348;-85
2021/01/26 11:41:39;;;;;;;19.83;5.18;;;;;;;;;;4977179;28;20042;-85
2021/01/26 11:44:07;;;;;;;16.85;4.18;;;;;;;;;;4969025;28;20033;-86
2021/01/26 11:46:35;;;;;;;18.55;5.40;;;;;;;;;;4990013;28;20640;-86
2021/01/26 11:49:02;;;;;;;20.00;6.10;;;;;;;;;;4961297;28;20048;-88
2021/01/26 11:51:29;;;;;;;19.50;4.43;;;;;;;;;;4948715;28;20629;-86
2021/01/26 11:53:56;;;;;;;18.23;6.00;;;;;;;;;;4993273;28;20037;-87
2021/01/26 11:56:24;;;;;;;19.30;5.03;;;;;;;;;;4988109;28;20037;-86
2021/01/26 11:58:51;;;;;;;19.50;5.65;;;;;;;;;;4979617;28;20048;-87
2021/01/26 12:01:18;;;;;;;;;;;;;;;;;;4986455;28;20029;-88
2021/01/26 12:03:56;;;;;;;16.00;4.80;;;;;;;;;;4945759;28;19968;-88
2021/01/26 12:06:26;;;;;;;17.77;4.05;;;;;;;;;;4972782;28;20137;-87
2021/01/26 12:08:55;;;;;;;15.48;4.70;;;;;;;;;;4968434;28;20073;-86
2021/01/26 12:11:24;;;;;;;16.23;3.75;;;;;;;;;;4976704;28;20038;-86
2021/01/26 12:13:52;;;;;;;14.75;3.75;;;;;;;;;;4971830;28;20049;-88
2021/01/26 12:16:20;;;;;;;16.40;4.00;;;;;;;;;;5000635;28;20574;-87
2021/01/26 12:18:48;;;;;;;17.25;4.03;;;;;;;;;;4995217;28;20037;-87
2021/01/26 12:21:17;;;;;;;17.67;4.53;;;;;;;;;;4961881;28;20038;-87
2021/01/26 12:23:49;;;;;;;20.33;4.22;;;;;;;;;;4951276;28;20034;-87
2021/01/26 12:26:21;;;;;;;14.63;4.10;;;;;;;;;;4973641;28;20097;-88
2021/01/26 12:28:50;;;;;;;15.00;4.63;;;;;;;;;;5019337;28;20031;-86
2021/01/26 12:31:18;;;;;;;18.75;4.53;;;;;;;;;;5037398;28;20049;-85
2021/01/26 12:33:44;;;;;;;15.18;5.00;;;;;;;;;;4938043;28;20073;-87
2021/01/26 12:36:13;;;;;;;18.42;5.38;;;;;;;;;;4991312;28;20045;-87
2021/01/26 12:38:40;;;;;;;17.60;6.00;;;;;;;;;;4996635;28;20037;-87
2021/01/26 12:41:10;;;;;;;15.98;5.07;;;;;;;;;;4981235;28;20046;-85
2021/01/26 12:43:43;;;;;;;18.77;7.82;;;;;;;;;;4995134;28;20095;-87
2021/01/26 12:46:12;;;;;;;16.30;5.03;;;;;;;;;;4961872;28;20037;-86
2021/01/26 12:48:40;;;;;;;14.60;3.75;;;;;;;;;;4970655;28;20044;-85
2021/01/26 12:51:10;;;;;;;17.38;4.70;;;;;;;;;;4956799;28;20045;-86
2021/01/26 12:53:38;;;;;;;17.45;5.00;;;;;;;;;;4973308;28;20045;-87
2021/01/26 12:56:10;;;;;;;16.17;4.95;;;;;;;;;;4982183;28;20072;-87
2021/01/26 12:58:39;;;;;;;16.48;4.05;;;;;;;;;;4988243;28;20037;-87
2021/01/26 13:01:24;;;;;;;13.63;3.50;;;;;;;;;;4963404;28;20040;-88
2021/01/26 13:03:52;;;;;;;15.70;4.53;;;;;;;;;;4974331;28;20053;-88
2021/01/26 13:06:20;;;;;;;14.20;5.40;;;;;;;;;;4988386;28;20033;-87
2021/01/26 13:09:03;;;;;;;17.08;5.75;;;;;;;;;;5008794;28;20068;-86
2021/01/26 13:11:32;;;;;;;17.35;4.03;;;;;;;;;;4965940;28;20633;-87
2021/01/26 13:14:00;;;;;;;31.75;18.52;;;;;;;;;;4988046;28;20074;-87
2021/01/26 13:16:27;;;;;;;17.23;6.05;;;;;;;;;;4968262;28;20037;-86
2021/01/26 13:18:57;;;;;;;14.07;4.03;;;;;;;;;;4992674;28;20041;-86
2021/01/26 13:21:26;;;;;;;17.60;7.00;;;;;;;;;;4995669;28;20096;-86
2021/01/26 13:24:15;;;;;;;20.40;9.32;;;;;;;;;;5005393;28;20124;-86
2021/01/26 13:26:41;;;;;;;17.95;6.45;;;;;;;;;;4961473;28;20049;-85
2021/01/26 13:29:08;;;;;;;15.40;4.07;;;;;;;;;;4961590;28;20038;-82
2021/01/26 13:31:39;;;;;;;22.02;9.85;;;;;;;;;;4976143;28;20048;-85
2021/01/26 13:34:13;;;;;;;24.80;12.95;;;;;;;;;;4923371;28;20136;-85
2021/01/26 13:36:41;;;;;;;19.08;6.90;;;;;;;;;;4963546;28;20393;-86
2021/01/26 13:39:13;;;;;;;16.55;4.22;;;;;;;;;;4960033;28;20039;-86
2021/01/26 13:41:45;;;;;;;20.77;7.65;;;;;;;;;;4951257;28;20546;-86
2021/01/26 13:44:13;;;;;;;15.00;4.90;;;;;;;;;;4956205;28;20101;-86
2021/01/26 13:46:42;;;;;;;14.25;4.93;;;;;;;;;;4946180;28;20052;-86
2021/01/26 13:49:10;;;;;;;21.95;4.32;;;;;;;;;;4953806;28;20116;-86
2021/01/26 13:51:37;;;;;;;16.33;5.47;;;;;;;;;;4943705;28;20034;-86
2021/01/26 13:54:07;;;;;;;18.45;5.70;;;;;;;;;;4930104;28;20050;-86
2021/01/26 13:56:34;;;;;;;22.75;7.78;;;;;;;;;;4948231;28;20133;-89
2021/01/26 13:59:03;;;;;;;19.25;5.00;;;;;;;;;;4933459;28;20041;-86
2021/01/26 14:01:30;;;;;;;14.10;3.90;;;;;;;;;;4975519;28;21185;-87
2021/01/26 14:03:59;;;;;;;14.45;3.92;;;;;;;;;;4944544;28;20042;-89
2021/01/26 14:06:28;;;;;;;16.08;4.10;;;;;;;;;;4953969;28;20047;-88
2021/01/26 14:08:56;;;;;;;14.52;3.63;;;;;;;;;;4946731;28;20047;-88
2021/01/26 14:11:23;;;;;;;15.23;4.05;;;;;;;;;;4982916;28;20037;-88
2021/01/26 14:13:53;;;;;;;14.55;4.13;;;;;;;;;;4979627;28;20076;-88
2021/01/26 14:16:38;;;;;;;18.25;5.95;;;;;;;;;;5008529;28;20046;-90
2021/01/26 14:19:08;;;;;;;18.83;4.70;;;;;;;;;;4978118;28;20037;-87
2021/01/26 14:21:37;;;;;;;18.65;5.78;;;;;;;;;;5007443;28;20079;-87
2021/01/26 14:24:03;;;;;;;14.52;3.75;;;;;;;;;;4970209;28;20037;-88
2021/01/26 14:26:31;;;;;;;17.30;3.67;;;;;;;;;;4942934;28;21169;-87
2021/01/26 14:28:57;;;;;;;15.27;4.38;;;;;;;;;;4933932;28;20053;-87
2021/01/26 14:31:23;;;;;;;;;;;;;;;;;;4970619;28;20497;-87
2021/01/26 14:33:50;;;;;;;13.40;2.85;;;;;;;;;;4921898;28;19965;-88
2021/01/26 14:36:16;;;;;;;;;;;;;;;;;;4942299;28;20111;-86
2021/01/26 14:38:44;;;;;;;17.30;3.83;;;;;;;;;;4947407;28;20000;-87
2021/01/26 14:41:16;;;;;;;12.95;3.00;;;;;;;;;;4927496;28;20046;-87
2021/01/26 14:43:42;;;;;;;15.55;3.38;;;;;;;;;;4967084;28;20021;-86
2021/01/26 14:46:11;;;;;;;;;;;;;;;;;;4982301;28;20698;-87
2021/01/26 14:48:38;;;;;;;15.52;2.60;;;;;;;;;;4946503;28;19940;-87
2021/01/26 14:51:08;;;;;;;15.52;3.13;;;;;;;;;;4938597;28;20429;-86
2021/01/26 14:53:37;;;;;;;13.95;3.20;;;;;;;;;;4956240;28;20051;-88
2021/01/26 14:56:04;;;;;;;15.10;4.10;;;;;;;;;;4968898;28;20042;-87
2021/01/26 14:58:31;;;;;;;12.73;3.25;;;;;;;;;;4963909;28;20504;-87
2021/01/26 15:00:58;;;;;;;12.73;3.40;;;;;;;;;;4964806;28;20038;-87
2021/01/26 15:03:25;;;;;;;14.43;3.58;;;;;;;;;;4960124;28;20030;-87
2021/01/26 15:05:52;;;;;;;17.30;4.03;;;;;;;;;;4956802;28;20120;-86
2021/01/26 15:08:19;;;;;;;15.15;3.40;;;;;;;;;;4942567;28;20033;-87
2021/01/26 15:10:49;;;;;;;16.17;3.50;;;;;;;;;;4993782;28;20033;-85
2021/01/26 15:13:17;;;;;;;15.35;3.70;;;;;;;;;;4996551;28;20045;-87
2021/01/26 15:15:44;;;;;;;13.98;2.88;;;;;;;;;;4952450;28;20141;-87
2021/01/26 15:18:13;;;;;;;13.40;3.33;;;;;;;;;;4986335;28;20080;-87
2021/01/26 15:20:39;;;;;;;16.20;3.95;;;;;;;;;;4971299;28;20080;-86
2021/01/26 15:23:09;;;;;;;16.88;3.88;;;;;;;;;;5004678;28;20122;-87
2021/01/26 15:25:47;;;;;;;14.95;3.92;;;;;;;;;;5011842;28;20029;-86
2021/01/26 15:28:14;;;;;;;17.90;3.50;;;;;;;;;;5012186;28;20033;-87